sensor_id;sensor_type;location;lat;lon;timestamp;P1;durP1;ratioP1;P2;durP2;ratioP2
20040;SDS011;10181;48.072;9.884;2024-02-15T00:00:27;1.93;;;1.37;;
20040;SDS011;10181;48.072;9.884;2024-02-15T00:02:53;1.60;;;1.50;;
20040;SDS011;10181;48.072;9.884;2024-02-15T00:05:18;2.03;;;1.60;;
20040;SDS011;10181;48.072;9.884;2024-02-15T00:07:44;1.23;;;1.23;;
20040;SDS011;10181;48.072;9.884;2024-02-15T00:10:13;1.37;;;1.37;;
20040;SDS011;10181;48.072;9.884;2024-02-15T00:12:39;2.37;;;1.80;;
20040;SDS011;10181;48.072;9.884;2024-02-15T00:15:05;2.00;;;1.90;;
20040;SDS011;10181;48.072;9.884;2024-02-15T00:17:30;1.97;;;1.87;;
20040;SDS011;10181;48.072;9.884;2024-02-15T00:19:58;1.40;;;1.40;;
20040;SDS011;10181;48.072;9.884;2024-02-15T00:22:25;1.83;;;1.73;;
20040;SDS011;10181;48.072;9.884;2024-02-15T00:24:50;1.67;;;1.60;;
20040;SDS011;10181;48.072;9.884;2024-02-15T00:27:16;2.00;;;1.90;;
20040;SDS011;10181;48.072;9.884;2024-02-15T00:29:42;1.70;;;1.60;;
20040;SDS011;10181;48.072;9.884;2024-02-15T00:32:08;1.97;;;1.87;;
20040;SDS011;10181;48.072;9.884;2024-02-15T00:34:35;1.80;;;1.70;;
20040;SDS011;10181;48.072;9.884;2024-02-15T00:37:03;1.90;;;1.70;;
20040;SDS011;10181;48.072;9.884;2024-02-15T00:39:30;1.60;;;1.50;;
20040;SDS011;10181;48.072;9.884;2024-02-15T00:41:56;1.50;;;1.40;;
20040;SDS011;10181;48.072;9.884;2024-02-15T00:44:22;1.73;;;1.63;;
20040;SDS011;10181;48.072;9.884;2024-02-15T00:46:48;1.23;;;1.23;;
20040;SDS011;10181;48.072;9.884;2024-02-15T00:49:13;1.80;;;1.70;;
20040;SDS011;10181;48.072;9.884;2024-02-15T00:51:39;1.50;;;1.40;;
20040;SDS011;10181;48.072;9.884;2024-02-15T00:54:04;1.10;;;1.10;;
20040;SDS011;10181;48.072;9.884;2024-02-15T00:56:33;1.40;;;1.30;;
20040;SDS011;10181;48.072;9.884;2024-02-15T00:58:59;1.40;;;1.30;;
20040;SDS011;10181;48.072;9.884;2024-02-15T01:01:28;1.37;;;1.37;;
20040;SDS011;10181;48.072;9.884;2024-02-15T01:03:54;1.83;;;1.70;;
20040;SDS011;10181;48.072;9.884;2024-02-15T01:06:20;1.53;;;1.43;;
20040;SDS011;10181;48.072;9.884;2024-02-15T01:08:45;1.00;;;1.00;;
20040;SDS011;10181;48.072;9.884;2024-02-15T01:11:11;3.90;;;1.37;;
20040;SDS011;10181;48.072;9.884;2024-02-15T01:13:38;1.40;;;1.30;;
20040;SDS011;10181;48.072;9.884;2024-02-15T01:16:04;1.33;;;1.33;;
20040;SDS011;10181;48.072;9.884;2024-02-15T01:18:30;1.13;;;1.13;;
20040;SDS011;10181;48.072;9.884;2024-02-15T01:20:56;1.77;;;1.10;;
20040;SDS011;10181;48.072;9.884;2024-02-15T01:23:22;1.30;;;1.30;;
20040;SDS011;10181;48.072;9.884;2024-02-15T01:25:48;1.20;;;1.20;;
20040;SDS011;10181;48.072;9.884;2024-02-15T01:28:14;1.47;;;1.37;;
20040;SDS011;10181;48.072;9.884;2024-02-15T01:30:40;1.20;;;1.20;;
20040;SDS011;10181;48.072;9.884;2024-02-15T01:33:08;1.20;;;1.20;;
20040;SDS011;10181;48.072;9.884;2024-02-15T01:35:36;2.27;;;1.00;;
20040;SDS011;10181;48.072;9.884;2024-02-15T01:38:01;1.10;;;1.10;;
20040;SDS011;10181;48.072;9.884;2024-02-15T01:40:27;1.27;;;1.27;;
20040;SDS011;10181;48.072;9.884;2024-02-15T01:42:53;1.20;;;1.20;;
20040;SDS011;10181;48.072;9.884;2024-02-15T01:45:18;1.23;;;1.13;;
20040;SDS011;10181;48.072;9.884;2024-02-15T01:47:45;1.00;;;1.00;;
20040;SDS011;10181;48.072;9.884;2024-02-15T01:50:10;1.13;;;1.07;;
20040;SDS011;10181;48.072;9.884;2024-02-15T01:52:37;0.93;;;0.93;;
20040;SDS011;10181;48.072;9.884;2024-02-15T01:55:04;1.17;;;1.17;;
20040;SDS011;10181;48.072;9.884;2024-02-15T01:57:36;2.20;;;2.10;;
20040;SDS011;10181;48.072;9.884;2024-02-15T02:00:05;1.70;;;1.60;;
20040;SDS011;10181;48.072;9.884;2024-02-15T02:02:33;1.40;;;1.40;;
20040;SDS011;10181;48.072;9.884;2024-02-15T02:05:00;3.03;;;2.03;;
20040;SDS011;10181;48.072;9.884;2024-02-15T02:07:27;1.47;;;1.37;;
20040;SDS011;10181;48.072;9.884;2024-02-15T02:09:53;1.60;;;1.50;;
20040;SDS011;10181;48.072;9.884;2024-02-15T02:12:19;1.50;;;1.40;;
20040;SDS011;10181;48.072;9.884;2024-02-15T02:14:44;1.30;;;1.30;;
20040;SDS011;10181;48.072;9.884;2024-02-15T02:17:11;1.13;;;1.10;;
20040;SDS011;10181;48.072;9.884;2024-02-15T02:19:38;1.27;;;1.27;;
20040;SDS011;10181;48.072;9.884;2024-02-15T02:22:04;2.70;;;1.87;;
20040;SDS011;10181;48.072;9.884;2024-02-15T02:24:30;1.63;;;1.53;;
20040;SDS011;10181;48.072;9.884;2024-02-15T02:27:03;1.30;;;1.30;;
20040;SDS011;10181;48.072;9.884;2024-02-15T02:29:30;1.40;;;1.30;;
20040;SDS011;10181;48.072;9.884;2024-02-15T02:31:56;1.37;;;1.27;;
20040;SDS011;10181;48.072;9.884;2024-02-15T02:34:22;1.47;;;1.40;;
20040;SDS011;10181;48.072;9.884;2024-02-15T02:36:47;1.47;;;1.37;;
20040;SDS011;10181;48.072;9.884;2024-02-15T02:39:15;1.83;;;1.73;;
20040;SDS011;10181;48.072;9.884;2024-02-15T02:41:41;1.70;;;1.60;;
20040;SDS011;10181;48.072;9.884;2024-02-15T02:44:07;1.80;;;1.70;;
20040;SDS011;10181;48.072;9.884;2024-02-15T02:46:34;1.40;;;1.40;;
20040;SDS011;10181;48.072;9.884;2024-02-15T02:48:59;1.70;;;1.60;;
20040;SDS011;10181;48.072;9.884;2024-02-15T02:51:25;1.50;;;1.40;;
20040;SDS011;10181;48.072;9.884;2024-02-15T02:53:51;1.93;;;1.83;;
20040;SDS011;10181;48.072;9.884;2024-02-15T02:56:16;1.57;;;1.47;;
20040;SDS011;10181;48.072;9.884;2024-02-15T02:58:43;1.30;;;1.30;;
20040;SDS011;10181;48.072;9.884;2024-02-15T03:01:09;2.03;;;1.93;;
20040;SDS011;10181;48.072;9.884;2024-02-15T03:03:35;1.77;;;1.67;;
20040;SDS011;10181;48.072;9.884;2024-02-15T03:06:01;1.63;;;1.43;;
20040;SDS011;10181;48.072;9.884;2024-02-15T03:08:27;1.60;;;1.50;;
20040;SDS011;10181;48.072;9.884;2024-02-15T03:10:52;1.80;;;1.27;;
20040;SDS011;10181;48.072;9.884;2024-02-15T03:13:18;1.60;;;1.50;;
20040;SDS011;10181;48.072;9.884;2024-02-15T03:15:44;1.50;;;1.43;;
20040;SDS011;10181;48.072;9.884;2024-02-15T03:18:16;1.20;;;1.17;;
20040;SDS011;10181;48.072;9.884;2024-02-15T03:20:42;1.50;;;1.40;;
20040;SDS011;10181;48.072;9.884;2024-02-15T03:23:08;1.73;;;1.63;;
20040;SDS011;10181;48.072;9.884;2024-02-15T03:25:34;1.43;;;1.33;;
20040;SDS011;10181;48.072;9.884;2024-02-15T03:27:59;1.50;;;1.40;;
20040;SDS011;10181;48.072;9.884;2024-02-15T03:30:29;1.77;;;1.67;;
20040;SDS011;10181;48.072;9.884;2024-02-15T03:32:56;2.97;;;2.67;;
20040;SDS011;10181;48.072;9.884;2024-02-15T03:35:24;2.20;;;2.10;;
20040;SDS011;10181;48.072;9.884;2024-02-15T03:37:52;3.57;;;3.20;;
20040;SDS011;10181;48.072;9.884;2024-02-15T03:40:18;2.33;;;2.17;;
20040;SDS011;10181;48.072;9.884;2024-02-15T03:42:45;2.00;;;1.90;;
20040;SDS011;10181;48.072;9.884;2024-02-15T03:45:11;2.10;;;1.93;;
20040;SDS011;10181;48.072;9.884;2024-02-15T03:47:37;2.90;;;2.57;;
20040;SDS011;10181;48.072;9.884;2024-02-15T03:50:05;3.20;;;2.90;;
20040;SDS011;10181;48.072;9.884;2024-02-15T03:52:34;2.80;;;2.60;;
20040;SDS011;10181;48.072;9.884;2024-02-15T03:55:00;2.67;;;1.90;;
20040;SDS011;10181;48.072;9.884;2024-02-15T03:57:27;1.97;;;1.87;;
20040;SDS011;10181;48.072;9.884;2024-02-15T03:59:53;2.33;;;2.10;;
20040;SDS011;10181;48.072;9.884;2024-02-15T04:02:20;2.30;;;2.20;;
20040;SDS011;10181;48.072;9.884;2024-02-15T04:04:46;2.73;;;2.47;;
20040;SDS011;10181;48.072;9.884;2024-02-15T04:07:17;2.20;;;2.03;;
20040;SDS011;10181;48.072;9.884;2024-02-15T04:09:43;2.10;;;2.00;;
20040;SDS011;10181;48.072;9.884;2024-02-15T04:12:10;2.10;;;2.00;;
20040;SDS011;10181;48.072;9.884;2024-02-15T04:14:36;1.77;;;1.63;;
20040;SDS011;10181;48.072;9.884;2024-02-15T04:17:03;2.00;;;1.90;;
20040;SDS011;10181;48.072;9.884;2024-02-15T04:19:29;2.63;;;2.43;;
20040;SDS011;10181;48.072;9.884;2024-02-15T04:21:58;2.10;;;2.00;;
20040;SDS011;10181;48.072;9.884;2024-02-15T04:24:25;1.97;;;1.87;;
20040;SDS011;10181;48.072;9.884;2024-02-15T04:26:51;1.60;;;1.50;;
20040;SDS011;10181;48.072;9.884;2024-02-15T04:29:17;2.17;;;2.07;;
20040;SDS011;10181;48.072;9.884;2024-02-15T04:31:45;2.13;;;1.70;;
20040;SDS011;10181;48.072;9.884;2024-02-15T04:34:14;2.30;;;2.10;;
20040;SDS011;10181;48.072;9.884;2024-02-15T04:36:47;1.70;;;1.60;;
20040;SDS011;10181;48.072;9.884;2024-02-15T04:39:18;2.07;;;1.97;;
20040;SDS011;10181;48.072;9.884;2024-02-15T04:41:53;1.50;;;1.40;;
20040;SDS011;10181;48.072;9.884;2024-02-15T04:44:20;5.07;;;4.67;;
20040;SDS011;10181;48.072;9.884;2024-02-15T04:46:46;2.67;;;2.47;;
20040;SDS011;10181;48.072;9.884;2024-02-15T04:49:15;2.37;;;2.00;;
20040;SDS011;10181;48.072;9.884;2024-02-15T04:51:41;3.13;;;2.90;;
20040;SDS011;10181;48.072;9.884;2024-02-15T04:54:07;1.73;;;1.63;;
20040;SDS011;10181;48.072;9.884;2024-02-15T04:56:33;4.37;;;3.40;;
20040;SDS011;10181;48.072;9.884;2024-02-15T04:59:01;4.33;;;3.50;;
20040;SDS011;10181;48.072;9.884;2024-02-15T05:01:27;3.40;;;3.10;;
20040;SDS011;10181;48.072;9.884;2024-02-15T05:03:54;3.83;;;3.40;;
20040;SDS011;10181;48.072;9.884;2024-02-15T05:06:20;5.30;;;3.03;;
20040;SDS011;10181;48.072;9.884;2024-02-15T05:08:46;3.70;;;3.40;;
20040;SDS011;10181;48.072;9.884;2024-02-15T05:11:12;3.57;;;3.27;;
20040;SDS011;10181;48.072;9.884;2024-02-15T05:13:45;4.27;;;3.43;;
20040;SDS011;10181;48.072;9.884;2024-02-15T05:16:12;2.87;;;2.60;;
20040;SDS011;10181;48.072;9.884;2024-02-15T05:18:37;3.53;;;2.63;;
20040;SDS011;10181;48.072;9.884;2024-02-15T05:21:05;2.90;;;2.70;;
20040;SDS011;10181;48.072;9.884;2024-02-15T05:23:34;2.90;;;2.70;;
20040;SDS011;10181;48.072;9.884;2024-02-15T05:26:01;2.73;;;2.17;;
20040;SDS011;10181;48.072;9.884;2024-02-15T05:28:28;2.10;;;2.00;;
20040;SDS011;10181;48.072;9.884;2024-02-15T05:33:42;6.13;;;5.00;;
20040;SDS011;10181;48.072;9.884;2024-02-15T05:36:11;3.83;;;3.40;;
20040;SDS011;10181;48.072;9.884;2024-02-15T05:38:38;4.07;;;3.70;;
20040;SDS011;10181;48.072;9.884;2024-02-15T05:41:04;3.83;;;3.53;;
20040;SDS011;10181;48.072;9.884;2024-02-15T05:43:31;4.50;;;4.10;;
20040;SDS011;10181;48.072;9.884;2024-02-15T05:45:57;4.93;;;4.50;;
20040;SDS011;10181;48.072;9.884;2024-02-15T05:48:24;5.27;;;4.77;;
20040;SDS011;10181;48.072;9.884;2024-02-15T05:50:49;4.90;;;4.50;;
20040;SDS011;10181;48.072;9.884;2024-02-15T05:53:15;5.37;;;4.87;;
20040;SDS011;10181;48.072;9.884;2024-02-15T05:55:41;5.60;;;5.10;;
20040;SDS011;10181;48.072;9.884;2024-02-15T05:58:09;4.80;;;4.33;;
20040;SDS011;10181;48.072;9.884;2024-02-15T06:00:36;4.83;;;4.33;;
20040;SDS011;10181;48.072;9.884;2024-02-15T06:03:03;5.57;;;4.20;;
20040;SDS011;10181;48.072;9.884;2024-02-15T06:05:31;3.97;;;3.67;;
20040;SDS011;10181;48.072;9.884;2024-02-15T06:07:57;3.83;;;3.53;;
20040;SDS011;10181;48.072;9.884;2024-02-15T06:10:24;4.67;;;4.13;;
20040;SDS011;10181;48.072;9.884;2024-02-15T06:12:50;3.40;;;3.20;;
20040;SDS011;10181;48.072;9.884;2024-02-15T06:15:16;3.17;;;2.97;;
20040;SDS011;10181;48.072;9.884;2024-02-15T06:17:42;3.50;;;3.20;;
20040;SDS011;10181;48.072;9.884;2024-02-15T06:20:10;4.10;;;3.30;;
20040;SDS011;10181;48.072;9.884;2024-02-15T06:22:39;3.60;;;3.30;;
20040;SDS011;10181;48.072;9.884;2024-02-15T06:25:05;3.20;;;2.90;;
20040;SDS011;10181;48.072;9.884;2024-02-15T06:27:31;3.10;;;2.80;;
20040;SDS011;10181;48.072;9.884;2024-02-15T06:29:57;4.37;;;2.87;;
20040;SDS011;10181;48.072;9.884;2024-02-15T06:32:41;2.77;;;2.57;;
20040;SDS011;10181;48.072;9.884;2024-02-15T06:35:26;2.87;;;2.67;;
20040;SDS011;10181;48.072;9.884;2024-02-15T06:38:10;4.13;;;3.40;;
20040;SDS011;10181;48.072;9.884;2024-02-15T06:40:54;3.63;;;2.80;;
20040;SDS011;10181;48.072;9.884;2024-02-15T06:43:20;3.20;;;2.90;;
20040;SDS011;10181;48.072;9.884;2024-02-15T06:45:46;3.07;;;2.77;;
20040;SDS011;10181;48.072;9.884;2024-02-15T06:48:12;3.77;;;2.07;;
20040;SDS011;10181;48.072;9.884;2024-02-15T06:50:38;2.70;;;2.50;;
20040;SDS011;10181;48.072;9.884;2024-02-15T06:53:04;3.00;;;2.70;;
20040;SDS011;10181;48.072;9.884;2024-02-15T06:55:30;2.90;;;2.70;;
20040;SDS011;10181;48.072;9.884;2024-02-15T06:57:55;2.67;;;2.47;;
20040;SDS011;10181;48.072;9.884;2024-02-15T07:00:21;3.00;;;2.80;;
20040;SDS011;10181;48.072;9.884;2024-02-15T07:02:47;2.73;;;2.50;;
20040;SDS011;10181;48.072;9.884;2024-02-15T07:05:13;2.73;;;2.53;;
20040;SDS011;10181;48.072;9.884;2024-02-15T07:07:39;2.50;;;2.30;;
20040;SDS011;10181;48.072;9.884;2024-02-15T07:10:07;2.57;;;2.27;;
20040;SDS011;10181;48.072;9.884;2024-02-15T07:12:34;3.37;;;2.97;;
20040;SDS011;10181;48.072;9.884;2024-02-15T07:15:00;2.57;;;2.37;;
20040;SDS011;10181;48.072;9.884;2024-02-15T07:17:28;5.07;;;2.90;;
20040;SDS011;10181;48.072;9.884;2024-02-15T07:19:54;3.17;;;2.87;;
20040;SDS011;10181;48.072;9.884;2024-02-15T07:22:20;3.43;;;3.10;;
20040;SDS011;10181;48.072;9.884;2024-02-15T07:24:47;3.70;;;2.90;;
20040;SDS011;10181;48.072;9.884;2024-02-15T07:27:12;2.90;;;2.70;;
20040;SDS011;10181;48.072;9.884;2024-02-15T07:29:38;2.83;;;2.63;;
20040;SDS011;10181;48.072;9.884;2024-02-15T07:32:06;3.00;;;2.80;;
20040;SDS011;10181;48.072;9.884;2024-02-15T07:34:33;2.83;;;2.63;;
20040;SDS011;10181;48.072;9.884;2024-02-15T07:36:59;2.70;;;2.50;;
20040;SDS011;10181;48.072;9.884;2024-02-15T07:39:25;3.33;;;2.90;;
20040;SDS011;10181;48.072;9.884;2024-02-15T07:41:53;2.63;;;2.43;;
20040;SDS011;10181;48.072;9.884;2024-02-15T07:44:19;3.03;;;2.73;;
20040;SDS011;10181;48.072;9.884;2024-02-15T07:46:46;3.10;;;2.90;;
20040;SDS011;10181;48.072;9.884;2024-02-15T07:49:12;8.10;;;5.40;;
20040;SDS011;10181;48.072;9.884;2024-02-15T07:51:38;7.67;;;4.60;;
20040;SDS011;10181;48.072;9.884;2024-02-15T07:54:04;6.33;;;4.53;;
20040;SDS011;10181;48.072;9.884;2024-02-15T07:56:29;9.37;;;5.10;;
20040;SDS011;10181;48.072;9.884;2024-02-15T07:58:55;6.77;;;4.90;;
20040;SDS011;10181;48.072;9.884;2024-02-15T08:01:21;6.77;;;4.70;;
20040;SDS011;10181;48.072;9.884;2024-02-15T08:03:47;7.67;;;4.90;;
20040;SDS011;10181;48.072;9.884;2024-02-15T08:06:14;6.77;;;5.03;;
20040;SDS011;10181;48.072;9.884;2024-02-15T08:08:44;6.63;;;4.13;;
20040;SDS011;10181;48.072;9.884;2024-02-15T08:11:12;5.73;;;3.83;;
20040;SDS011;10181;48.072;9.884;2024-02-15T08:16:23;8.87;;;3.60;;
20040;SDS011;10181;48.072;9.884;2024-02-15T08:18:52;5.13;;;3.70;;
20040;SDS011;10181;48.072;9.884;2024-02-15T08:21:26;4.23;;;3.30;;
20040;SDS011;10181;48.072;9.884;2024-02-15T08:23:54;4.47;;;2.73;;
20040;SDS011;10181;48.072;9.884;2024-02-15T08:26:20;2.47;;;2.37;;
20040;SDS011;10181;48.072;9.884;2024-02-15T08:28:46;4.73;;;2.10;;
20040;SDS011;10181;48.072;9.884;2024-02-15T08:31:12;2.03;;;1.87;;
20040;SDS011;10181;48.072;9.884;2024-02-15T08:33:40;5.13;;;2.23;;
20040;SDS011;10181;48.072;9.884;2024-02-15T08:36:06;2.60;;;2.30;;
20040;SDS011;10181;48.072;9.884;2024-02-15T08:38:32;4.17;;;2.23;;
20040;SDS011;10181;48.072;9.884;2024-02-15T08:40:59;2.30;;;1.93;;
20040;SDS011;10181;48.072;9.884;2024-02-15T08:43:24;1.30;;;1.20;;
20040;SDS011;10181;48.072;9.884;2024-02-15T08:45:50;1.63;;;1.53;;
20040;SDS011;10181;48.072;9.884;2024-02-15T08:48:17;2.83;;;1.73;;
20040;SDS011;10181;48.072;9.884;2024-02-15T08:50:42;1.63;;;1.53;;
20040;SDS011;10181;48.072;9.884;2024-02-15T08:53:10;1.97;;;1.60;;
20040;SDS011;10181;48.072;9.884;2024-02-15T08:55:36;2.03;;;1.47;;
20040;SDS011;10181;48.072;9.884;2024-02-15T08:58:01;0.83;;;0.83;;
20040;SDS011;10181;48.072;9.884;2024-02-15T09:00:28;1.77;;;1.17;;
20040;SDS011;10181;48.072;9.884;2024-02-15T09:02:54;1.50;;;1.40;;
20040;SDS011;10181;48.072;9.884;2024-02-15T09:05:19;1.00;;;1.00;;
20040;SDS011;10181;48.072;9.884;2024-02-15T09:07:47;1.20;;;1.10;;
20040;SDS011;10181;48.072;9.884;2024-02-15T09:10:13;1.00;;;1.00;;
20040;SDS011;10181;48.072;9.884;2024-02-15T09:12:40;1.13;;;1.10;;
20040;SDS011;10181;48.072;9.884;2024-02-15T09:15:07;1.10;;;1.00;;
20040;SDS011;10181;48.072;9.884;2024-02-15T09:17:33;0.97;;;0.97;;
20040;SDS011;10181;48.072;9.884;2024-02-15T09:20:05;1.63;;;1.20;;
20040;SDS011;10181;48.072;9.884;2024-02-15T09:22:39;0.97;;;0.97;;
20040;SDS011;10181;48.072;9.884;2024-02-15T09:25:06;1.10;;;1.10;;
20040;SDS011;10181;48.072;9.884;2024-02-15T09:27:32;0.97;;;0.97;;
20040;SDS011;10181;48.072;9.884;2024-02-15T09:29:58;1.00;;;0.90;;
20040;SDS011;10181;48.072;9.884;2024-02-15T09:32:23;0.50;;;0.50;;
20040;SDS011;10181;48.072;9.884;2024-02-15T09:34:49;0.50;;;0.50;;
20040;SDS011;10181;48.072;9.884;2024-02-15T09:37:15;0.80;;;0.80;;
20040;SDS011;10181;48.072;9.884;2024-02-15T09:39:40;0.80;;;0.80;;
20040;SDS011;10181;48.072;9.884;2024-02-15T09:42:06;0.90;;;0.90;;
20040;SDS011;10181;48.072;9.884;2024-02-15T09:44:32;1.03;;;0.93;;
20040;SDS011;10181;48.072;9.884;2024-02-15T09:47:02;1.43;;;1.03;;
20040;SDS011;10181;48.072;9.884;2024-02-15T09:49:29;2.87;;;1.10;;
20040;SDS011;10181;48.072;9.884;2024-02-15T09:52:08;1.00;;;1.00;;
20040;SDS011;10181;48.072;9.884;2024-02-15T09:54:38;2.60;;;1.10;;
20040;SDS011;10181;48.072;9.884;2024-02-15T09:57:08;0.80;;;0.80;;
20040;SDS011;10181;48.072;9.884;2024-02-15T09:59:35;0.70;;;0.70;;
20040;SDS011;10181;48.072;9.884;2024-02-15T10:02:01;1.30;;;0.87;;
20040;SDS011;10181;48.072;9.884;2024-02-15T10:04:27;0.83;;;0.83;;
20040;SDS011;10181;48.072;9.884;2024-02-15T10:06:53;0.83;;;0.83;;
20040;SDS011;10181;48.072;9.884;2024-02-15T10:09:28;1.10;;;1.03;;
20040;SDS011;10181;48.072;9.884;2024-02-15T10:11:58;1.07;;;0.90;;
20040;SDS011;10181;48.072;9.884;2024-02-15T10:14:28;1.43;;;1.13;;
20040;SDS011;10181;48.072;9.884;2024-02-15T10:16:55;1.93;;;0.63;;
20040;SDS011;10181;48.072;9.884;2024-02-15T10:19:21;1.13;;;1.07;;
20040;SDS011;10181;48.072;9.884;2024-02-15T10:21:52;0.80;;;0.80;;
20040;SDS011;10181;48.072;9.884;2024-02-15T10:24:22;0.90;;;0.90;;
20040;SDS011;10181;48.072;9.884;2024-02-15T10:26:59;1.17;;;1.07;;
20040;SDS011;10181;48.072;9.884;2024-02-15T10:29:29;0.83;;;0.83;;
20040;SDS011;10181;48.072;9.884;2024-02-15T10:31:56;1.97;;;1.13;;
20040;SDS011;10181;48.072;9.884;2024-02-15T10:34:23;1.00;;;1.00;;
20040;SDS011;10181;48.072;9.884;2024-02-15T10:36:52;1.40;;;1.30;;
20040;SDS011;10181;48.072;9.884;2024-02-15T10:39:37;1.50;;;1.23;;
20040;SDS011;10181;48.072;9.884;2024-02-15T10:42:03;2.37;;;1.00;;
20040;SDS011;10181;48.072;9.884;2024-02-15T10:44:31;0.87;;;0.87;;
20040;SDS011;10181;48.072;9.884;2024-02-15T10:46:59;0.90;;;0.90;;
20040;SDS011;10181;48.072;9.884;2024-02-15T10:49:25;1.30;;;1.30;;
20040;SDS011;10181;48.072;9.884;2024-02-15T10:51:56;1.30;;;1.20;;
20040;SDS011;10181;48.072;9.884;2024-02-15T10:57:06;1.50;;;1.40;;
20040;SDS011;10181;48.072;9.884;2024-02-15T10:59:34;0.90;;;0.90;;
20040;SDS011;10181;48.072;9.884;2024-02-15T11:02:49;1.83;;;1.10;;
20040;SDS011;10181;48.072;9.884;2024-02-15T11:04:55;1.00;;;1.00;;
20040;SDS011;10181;48.072;9.884;2024-02-15T11:07:28;1.00;;;1.00;;
20040;SDS011;10181;48.072;9.884;2024-02-15T11:09:55;1.13;;;1.03;;
20040;SDS011;10181;48.072;9.884;2024-02-15T11:12:24;0.80;;;0.80;;
20040;SDS011;10181;48.072;9.884;2024-02-15T11:14:51;0.90;;;0.90;;
20040;SDS011;10181;48.072;9.884;2024-02-15T11:20:02;0.97;;;0.97;;
20040;SDS011;10181;48.072;9.884;2024-02-15T11:22:33;0.93;;;0.93;;
20040;SDS011;10181;48.072;9.884;2024-02-15T11:25:02;0.90;;;0.90;;
20040;SDS011;10181;48.072;9.884;2024-02-15T11:27:37;1.10;;;1.10;;
20040;SDS011;10181;48.072;9.884;2024-02-15T11:30:04;1.00;;;1.00;;
20040;SDS011;10181;48.072;9.884;2024-02-15T11:40:17;2.33;;;0.73;;
20040;SDS011;10181;48.072;9.884;2024-02-15T11:43:01;0.70;;;0.67;;
20040;SDS011;10181;48.072;9.884;2024-02-15T11:45:29;1.03;;;1.03;;
20040;SDS011;10181;48.072;9.884;2024-02-15T11:48:02;0.83;;;0.83;;
20040;SDS011;10181;48.072;9.884;2024-02-15T11:50:33;1.10;;;1.00;;
20040;SDS011;10181;48.072;9.884;2024-02-15T11:53:06;0.90;;;0.90;;
20040;SDS011;10181;48.072;9.884;2024-02-15T11:55:35;0.80;;;0.80;;
20040;SDS011;10181;48.072;9.884;2024-02-15T11:58:04;0.70;;;0.70;;
20040;SDS011;10181;48.072;9.884;2024-02-15T12:00:33;0.90;;;0.90;;
20040;SDS011;10181;48.072;9.884;2024-02-15T12:03:18;0.83;;;0.70;;
20040;SDS011;10181;48.072;9.884;2024-02-15T12:06:03;1.13;;;0.60;;
20040;SDS011;10181;48.072;9.884;2024-02-15T12:08:48;0.90;;;0.90;;
20040;SDS011;10181;48.072;9.884;2024-02-15T12:11:33;0.90;;;0.90;;
20040;SDS011;10181;48.072;9.884;2024-02-15T12:14:18;0.87;;;0.87;;
20040;SDS011;10181;48.072;9.884;2024-02-15T12:17:02;0.77;;;0.77;;
20040;SDS011;10181;48.072;9.884;2024-02-15T12:19:51;0.60;;;0.60;;
20040;SDS011;10181;48.072;9.884;2024-02-15T12:24:57;0.50;;;0.50;;
20040;SDS011;10181;48.072;9.884;2024-02-15T12:27:25;0.80;;;0.80;;
20040;SDS011;10181;48.072;9.884;2024-02-15T12:29:55;0.60;;;0.60;;
20040;SDS011;10181;48.072;9.884;2024-02-15T12:32:23;0.63;;;0.52;;
20040;SDS011;10181;48.072;9.884;2024-02-15T12:34:53;0.82;;;0.82;;
20040;SDS011;10181;48.072;9.884;2024-02-15T12:37:34;0.82;;;0.68;;
20040;SDS011;10181;48.072;9.884;2024-02-15T12:40:09;0.63;;;0.63;;
20040;SDS011;10181;48.072;9.884;2024-02-15T12:42:45;0.45;;;0.45;;
20040;SDS011;10181;48.072;9.884;2024-02-15T12:45:18;0.50;;;0.50;;
20040;SDS011;10181;48.072;9.884;2024-02-15T12:47:50;0.50;;;0.50;;
20040;SDS011;10181;48.072;9.884;2024-02-15T12:50:17;0.70;;;0.70;;
20040;SDS011;10181;48.072;9.884;2024-02-15T12:52:47;0.50;;;0.50;;
20040;SDS011;10181;48.072;9.884;2024-02-15T12:57:41;0.70;;;0.68;;
20040;SDS011;10181;48.072;9.884;2024-02-15T13:00:13;0.60;;;0.60;;
20040;SDS011;10181;48.072;9.884;2024-02-15T13:02:43;0.55;;;0.55;;
20040;SDS011;10181;48.072;9.884;2024-02-15T13:05:19;0.40;;;0.40;;
20040;SDS011;10181;48.072;9.884;2024-02-15T13:07:46;0.50;;;0.50;;
20040;SDS011;10181;48.072;9.884;2024-02-15T13:10:12;0.45;;;0.45;;
20040;SDS011;10181;48.072;9.884;2024-02-15T13:12:40;1.20;;;0.40;;
20040;SDS011;10181;48.072;9.884;2024-02-15T13:15:06;0.45;;;0.45;;
20040;SDS011;10181;48.072;9.884;2024-02-15T13:17:36;0.60;;;0.60;;
20040;SDS011;10181;48.072;9.884;2024-02-15T13:20:03;0.50;;;0.50;;
20040;SDS011;10181;48.072;9.884;2024-02-15T13:22:32;0.60;;;0.60;;
20040;SDS011;10181;48.072;9.884;2024-02-15T13:24:59;0.63;;;0.63;;
20040;SDS011;10181;48.072;9.884;2024-02-15T13:27:24;0.68;;;0.68;;
20040;SDS011;10181;48.072;9.884;2024-02-15T13:29:51;0.55;;;0.55;;
20040;SDS011;10181;48.072;9.884;2024-02-15T13:32:18;0.52;;;0.52;;
20040;SDS011;10181;48.072;9.884;2024-02-15T13:34:46;0.70;;;0.70;;
20040;SDS011;10181;48.072;9.884;2024-02-15T13:37:20;0.95;;;0.70;;
20040;SDS011;10181;48.072;9.884;2024-02-15T13:39:48;0.80;;;0.80;;
20040;SDS011;10181;48.072;9.884;2024-02-15T13:42:14;2.05;;;1.00;;
20040;SDS011;10181;48.072;9.884;2024-02-15T13:44:41;1.05;;;1.05;;
20040;SDS011;10181;48.072;9.884;2024-02-15T13:47:07;0.98;;;0.98;;
20040;SDS011;10181;48.072;9.884;2024-02-15T13:49:33;1.05;;;1.05;;
20040;SDS011;10181;48.072;9.884;2024-02-15T13:51:59;0.90;;;0.90;;
20040;SDS011;10181;48.072;9.884;2024-02-15T13:54:29;1.23;;;1.13;;
20040;SDS011;10181;48.072;9.884;2024-02-15T13:56:56;1.25;;;1.25;;
20040;SDS011;10181;48.072;9.884;2024-02-15T13:59:22;1.20;;;1.10;;
20040;SDS011;10181;48.072;9.884;2024-02-15T14:01:48;1.20;;;1.10;;
20040;SDS011;10181;48.072;9.884;2024-02-15T14:04:14;1.00;;;1.00;;
20040;SDS011;10181;48.072;9.884;2024-02-15T14:06:41;0.80;;;0.80;;
20040;SDS011;10181;48.072;9.884;2024-02-15T14:09:09;0.70;;;0.70;;
20040;SDS011;10181;48.072;9.884;2024-02-15T14:11:36;1.02;;;1.02;;
20040;SDS011;10181;48.072;9.884;2024-02-15T14:14:03;1.00;;;1.00;;
20040;SDS011;10181;48.072;9.884;2024-02-15T14:16:30;0.90;;;0.90;;
20040;SDS011;10181;48.072;9.884;2024-02-15T14:18:56;0.88;;;0.88;;
20040;SDS011;10181;48.072;9.884;2024-02-15T14:21:21;0.77;;;0.77;;
20040;SDS011;10181;48.072;9.884;2024-02-15T14:23:47;1.17;;;1.10;;
20040;SDS011;10181;48.072;9.884;2024-02-15T14:26:13;1.00;;;1.00;;
20040;SDS011;10181;48.072;9.884;2024-02-15T14:28:39;1.47;;;0.90;;
20040;SDS011;10181;48.072;9.884;2024-02-15T14:31:06;1.25;;;1.15;;
20040;SDS011;10181;48.072;9.884;2024-02-15T14:33:50;0.90;;;0.90;;
20040;SDS011;10181;48.072;9.884;2024-02-15T14:36:16;1.00;;;1.00;;
20040;SDS011;10181;48.072;9.884;2024-02-15T14:38:43;1.10;;;1.10;;
20040;SDS011;10181;48.072;9.884;2024-02-15T14:41:09;1.00;;;1.00;;
20040;SDS011;10181;48.072;9.884;2024-02-15T14:43:36;0.70;;;0.70;;
20040;SDS011;10181;48.072;9.884;2024-02-15T14:46:02;0.80;;;0.80;;
20040;SDS011;10181;48.072;9.884;2024-02-15T14:48:30;0.83;;;0.83;;
20040;SDS011;10181;48.072;9.884;2024-02-15T14:50:56;0.90;;;0.90;;
20040;SDS011;10181;48.072;9.884;2024-02-15T14:53:22;1.10;;;1.10;;
20040;SDS011;10181;48.072;9.884;2024-02-15T14:55:49;1.23;;;1.20;;
20040;SDS011;10181;48.072;9.884;2024-02-15T14:58:17;1.00;;;0.87;;
20040;SDS011;10181;48.072;9.884;2024-02-15T15:00:42;1.03;;;1.03;;
20040;SDS011;10181;48.072;9.884;2024-02-15T15:03:09;1.10;;;1.10;;
20040;SDS011;10181;48.072;9.884;2024-02-15T15:05:39;1.07;;;1.07;;
20040;SDS011;10181;48.072;9.884;2024-02-15T15:08:23;0.90;;;0.90;;
20040;SDS011;10181;48.072;9.884;2024-02-15T15:11:08;0.67;;;0.67;;
20040;SDS011;10181;48.072;9.884;2024-02-15T15:13:53;1.03;;;1.03;;
20040;SDS011;10181;48.072;9.884;2024-02-15T15:16:19;0.63;;;0.63;;